sensor_id;sensor_type;location;lat;lon;timestamp;pressure;altitude;pressure_sealevel;temperature;humidity
12775;BME280;6451;42.630;23.382;2022-09-17T00:00:45;93638.97;;;17.31;100.00
12775;BME280;6451;42.630;23.382;2022-09-17T00:03:12;93577.81;;;16.96;100.00
12775;BME280;6451;42.630;23.382;2022-09-17T00:05:39;93639.28;;;17.40;100.00
12775;BME280;6451;42.630;23.382;2022-09-17T00:08:08;93636.94;;;17.38;100.00
12775;BME280;6451;42.630;23.382;2022-09-17T00:10:37;93641.59;;;17.45;100.00
12775;BME280;6451;42.630;23.382;2022-09-17T00:13:05;93487.00;;;16.49;100.00
12775;BME280;6451;42.630;23.382;2022-09-17T00:15:38;93570.00;;;16.94;100.00
12775;BME280;6451;42.630;23.382;2022-09-17T00:18:08;93599.47;;;17.24;100.00
12775;BME280;6451;42.630;23.382;2022-09-17T00:20:38;93560.13;;;17.04;100.00
12775;BME280;6451;42.630;23.382;2022-09-17T00:23:07;93465.22;;;16.35;100.00
12775;BME280;6451;42.630;23.382;2022-09-17T00:25:36;93609.19;;;17.33;100.00
12775;BME280;6451;42.630;23.382;2022-09-17T00:28:04;93408.06;;;15.92;100.00
12775;BME280;6451;42.630;23.382;2022-09-17T00:30:32;93616.25;;;17.34;100.00
12775;BME280;6451;42.630;23.382;2022-09-17T00:32:59;93457.41;;;16.33;100.00
12775;BME280;6451;42.630;23.382;2022-09-17T00:35:28;93502.63;;;16.52;100.00
12775;BME280;6451;42.630;23.382;2022-09-17T00:37:55;93603.22;;;17.00;100.00
12775;BME280;6451;42.630;23.382;2022-09-17T00:40:22;93433.28;;;15.66;100.00
12775;BME280;6451;42.630;23.382;2022-09-17T00:42:49;93488.97;;;15.97;100.00
12775;BME280;6451;42.630;23.382;2022-09-17T00:45:18;93577.22;;;16.71;100.00
12775;BME280;6451;42.630;23.382;2022-09-17T00:47:49;93604.41;;;16.99;100.00
12775;BME280;6451;42.630;23.382;2022-09-17T00:50:22;93476.78;;;16.05;100.00
12775;BME280;6451;42.630;23.382;2022-09-17T00:52:55;93621.53;;;17.10;100.00
12775;BME280;6451;42.630;23.382;2022-09-17T00:55:26;93610.19;;;17.08;100.00
12775;BME280;6451;42.630;23.382;2022-09-17T00:57:57;93585.75;;;16.83;100.00
12775;BME280;6451;42.630;23.382;2022-09-17T01:00:26;93547.19;;;16.56;100.00
12775;BME280;6451;42.630;23.382;2022-09-17T01:02:53;93595.63;;;16.74;100.00
12775;BME280;6451;42.630;23.382;2022-09-17T01:05:27;93649.41;;;17.02;100.00
12775;BME280;6451;42.630;23.382;2022-09-17T01:08:09;93452.75;;;15.71;100.00
12775;BME280;6451;42.630;23.382;2022-09-17T01:11:08;93644.78;;;16.91;100.00
12775;BME280;6451;42.630;23.382;2022-09-17T01:13:49;93621.22;;;17.01;100.00
12775;BME280;6451;42.630;23.382;2022-09-17T01:16:30;93607.19;;;16.92;100.00
12775;BME280;6451;42.630;23.382;2022-09-17T01:19:15;93561.22;;;16.62;100.00
12775;BME280;6451;42.630;23.382;2022-09-17T01:21:54;93589.97;;;16.95;100.00
12775;BME280;6451;42.630;23.382;2022-09-17T01:24:44;93619.59;;;17.07;100.00
12775;BME280;6451;42.630;23.382;2022-09-17T01:30:38;93574.34;;;16.88;100.00
12775;BME280;6451;42.630;23.382;2022-09-17T01:33:17;93600.00;;;17.09;100.00
12775;BME280;6451;42.630;23.382;2022-09-17T01:35:52;93611.63;;;17.23;100.00
12775;BME280;6451;42.630;23.382;2022-09-17T01:38:26;93610.66;;;17.03;100.00
12775;BME280;6451;42.630;23.382;2022-09-17T01:41:01;93617.28;;;17.02;100.00
12775;BME280;6451;42.630;23.382;2022-09-17T01:43:34;93568.59;;;16.76;100.00
12775;BME280;6451;42.630;23.382;2022-09-17T01:46:11;93589.50;;;17.00;100.00
12775;BME280;6451;42.630;23.382;2022-09-17T01:48:44;93560.78;;;16.71;100.00
12775;BME280;6451;42.630;23.382;2022-09-17T01:51:16;93568.59;;;16.68;100.00
12775;BME280;6451;42.630;23.382;2022-09-17T01:53:51;93548.66;;;16.68;100.00
12775;BME280;6451;42.630;23.382;2022-09-17T01:56:24;93542.09;;;16.58;100.00
12775;BME280;6451;42.630;23.382;2022-09-17T01:58:56;93534.34;;;16.46;100.00
12775;BME280;6451;42.630;23.382;2022-09-17T02:01:28;93514.56;;;16.28;100.00
12775;BME280;6451;42.630;23.382;2022-09-17T02:04:08;93553.94;;;16.45;100.00
12775;BME280;6451;42.630;23.382;2022-09-17T02:06:41;93538.38;;;16.34;100.00
12775;BME280;6451;42.630;23.382;2022-09-17T02:09:14;93499.69;;;15.66;100.00
12775;BME280;6451;42.630;23.382;2022-09-17T02:11:48;93578.34;;;16.21;100.00
12775;BME280;6451;42.630;23.382;2022-09-17T02:14:20;93446.25;;;15.44;100.00
12775;BME280;6451;42.630;23.382;2022-09-17T02:16:55;93414.63;;;15.43;100.00
12775;BME280;6451;42.630;23.382;2022-09-17T02:19:29;93410.22;;;15.67;100.00
12775;BME280;6451;42.630;23.382;2022-09-17T02:22:01;93265.91;;;14.70;100.00
12775;BME280;6451;42.630;23.382;2022-09-17T02:24:34;93519.72;;;16.63;100.00
12775;BME280;6451;42.630;23.382;2022-09-17T02:27:06;93428.66;;;16.11;100.00
12775;BME280;6451;42.630;23.382;2022-09-17T02:29:39;93339.84;;;15.71;100.00
12775;BME280;6451;42.630;23.382;2022-09-17T02:32:09;93467.25;;;16.68;100.00
12775;BME280;6451;42.630;23.382;2022-09-17T02:34:36;93410.88;;;16.30;100.00
12775;BME280;6451;42.630;23.382;2022-09-17T02:37:04;93300.41;;;15.68;100.00
12775;BME280;6451;42.630;23.382;2022-09-17T02:39:31;93436.84;;;16.56;100.00
12775;BME280;6451;42.630;23.382;2022-09-17T02:42:05;93433.69;;;16.61;100.00
12775;BME280;6451;42.630;23.382;2022-09-17T02:44:41;93464.91;;;16.74;100.00
12775;BME280;6451;42.630;23.382;2022-09-17T02:47:48;93466.47;;;16.68;100.00
12775;BME280;6451;42.630;23.382;2022-09-17T02:50:38;93493.50;;;16.66;100.00
12775;BME280;6451;42.630;23.382;2022-09-17T02:53:25;93505.03;;;16.91;100.00
12775;BME280;6451;42.630;23.382;2022-09-17T02:56:03;93510.66;;;17.15;100.00
12775;BME280;6451;42.630;23.382;2022-09-17T02:58:39;93494.19;;;17.18;100.00
12775;BME280;6451;42.630;23.382;2022-09-17T03:01:19;93459.41;;;16.74;100.00
12775;BME280;6451;42.630;23.382;2022-09-17T03:03:52;93528.00;;;17.05;100.00
12775;BME280;6451;42.630;23.382;2022-09-17T03:06:21;93500.22;;;17.03;100.00
12775;BME280;6451;42.630;23.382;2022-09-17T03:08:51;93476.03;;;16.94;100.00
12775;BME280;6451;42.630;23.382;2022-09-17T03:11:20;93462.16;;;17.12;100.00
12775;BME280;6451;42.630;23.382;2022-09-17T03:13:47;93472.72;;;17.10;100.00
12775;BME280;6451;42.630;23.382;2022-09-17T03:16:14;93366.19;;;16.44;100.00
12775;BME280;6451;42.630;23.382;2022-09-17T03:18:41;93459.06;;;17.06;100.00
12775;BME280;6451;42.630;23.382;2022-09-17T03:21:10;93357.47;;;16.52;100.00
12775;BME280;6451;42.630;23.382;2022-09-17T03:23:40;93436.09;;;16.97;100.00
12775;BME280;6451;42.630;23.382;2022-09-17T03:26:08;93428.00;;;16.41;100.00
12775;BME280;6451;42.630;23.382;2022-09-17T03:28:35;93347.00;;;16.02;100.00
12775;BME280;6451;42.630;23.382;2022-09-17T03:31:03;93443.75;;;18.27;100.00
12775;BME280;6451;42.630;23.382;2022-09-17T03:33:30;93368.53;;;18.65;100.00
12775;BME280;6451;42.630;23.382;2022-09-17T03:35:58;93165.38;;;17.55;100.00
12775;BME280;6451;42.630;23.382;2022-09-17T03:38:26;93330.78;;;18.49;100.00
12775;BME280;6451;42.630;23.382;2022-09-17T03:40:58;93422.72;;;18.17;100.00
12775;BME280;6451;42.630;23.382;2022-09-17T03:43:25;93435.13;;;17.75;100.00
12775;BME280;6451;42.630;23.382;2022-09-17T03:45:52;93279.44;;;16.67;100.00
12775;BME280;6451;42.630;23.382;2022-09-17T03:48:21;93306.59;;;16.89;100.00
12775;BME280;6451;42.630;23.382;2022-09-17T03:50:48;93406.22;;;17.36;100.00
12775;BME280;6451;42.630;23.382;2022-09-17T03:53:16;93353.28;;;17.12;100.00
12775;BME280;6451;42.630;23.382;2022-09-17T03:55:45;93303.22;;;16.78;100.00
12775;BME280;6451;42.630;23.382;2022-09-17T03:58:13;93409.19;;;17.49;100.00
12775;BME280;6451;42.630;23.382;2022-09-17T04:00:41;93329.19;;;17.54;100.00
12775;BME280;6451;42.630;23.382;2022-09-17T04:03:08;93412.75;;;18.03;100.00
12775;BME280;6451;42.630;23.382;2022-09-17T04:05:35;93349.88;;;17.32;100.00
12775;BME280;6451;42.630;23.382;2022-09-17T04:08:03;93416.13;;;17.57;100.00
12775;BME280;6451;42.630;23.382;2022-09-17T04:10:31;93429.56;;;17.48;100.00
12775;BME280;6451;42.630;23.382;2022-09-17T04:13:03;93444.47;;;17.47;100.00
12775;BME280;6451;42.630;23.382;2022-09-17T04:15:31;93363.47;;;17.12;100.00
12775;BME280;6451;42.630;23.382;2022-09-17T04:18:00;93400.84;;;17.29;100.00
12775;BME280;6451;42.630;23.382;2022-09-17T04:20:27;93406.41;;;17.22;100.00
12775;BME280;6451;42.630;23.382;2022-09-17T04:22:54;93252.94;;;16.27;100.00
12775;BME280;6451;42.630;23.382;2022-09-17T04:25:21;93500.53;;;17.80;100.00
12775;BME280;6451;42.630;23.382;2022-09-17T04:27:50;93284.41;;;16.46;100.00
12775;BME280;6451;42.630;23.382;2022-09-17T04:30:24;93529.50;;;17.81;100.00
12775;BME280;6451;42.630;23.382;2022-09-17T04:32:52;93529.38;;;17.92;100.00
12775;BME280;6451;42.630;23.382;2022-09-17T04:35:19;93441.69;;;17.20;100.00
12775;BME280;6451;42.630;23.382;2022-09-17T04:37:51;93573.00;;;17.83;100.00
12775;BME280;6451;42.630;23.382;2022-09-17T04:40:21;93414.88;;;17.01;100.00
12775;BME280;6451;42.630;23.382;2022-09-17T04:42:51;93416.63;;;16.84;100.00
12775;BME280;6451;42.630;23.382;2022-09-17T04:45:19;93470.72;;;17.14;100.00
12775;BME280;6451;42.630;23.382;2022-09-17T04:47:48;93503.41;;;17.32;100.00
12775;BME280;6451;42.630;23.382;2022-09-17T04:50:17;93572.78;;;17.66;100.00
12775;BME280;6451;42.630;23.382;2022-09-17T04:52:48;93598.47;;;17.83;100.00
12775;BME280;6451;42.630;23.382;2022-09-17T04:55:16;93595.78;;;17.80;100.00
12775;BME280;6451;42.630;23.382;2022-09-17T04:57:47;93613.09;;;17.69;100.00
12775;BME280;6451;42.630;23.382;2022-09-17T05:00:16;93628.50;;;17.60;100.00
12775;BME280;6451;42.630;23.382;2022-09-17T05:02:44;93409.78;;;16.24;100.00
12775;BME280;6451;42.630;23.382;2022-09-17T05:05:14;93601.91;;;17.53;100.00
12775;BME280;6451;42.630;23.382;2022-09-17T05:07:42;93605.72;;;17.66;100.00
12775;BME280;6451;42.630;23.382;2022-09-17T05:10:10;93567.19;;;17.39;100.00
12775;BME280;6451;42.630;23.382;2022-09-17T05:12:37;93600.59;;;17.72;100.00
12775;BME280;6451;42.630;23.382;2022-09-17T05:15:05;93563.97;;;17.48;100.00
12775;BME280;6451;42.630;23.382;2022-09-17T05:17:33;93579.97;;;17.53;100.00
12775;BME280;6451;42.630;23.382;2022-09-17T05:20:02;93571.91;;;17.39;100.00
12775;BME280;6451;42.630;23.382;2022-09-17T05:22:31;93564.44;;;17.43;100.00
12775;BME280;6451;42.630;23.382;2022-09-17T05:24:57;93589.09;;;17.43;100.00
12775;BME280;6451;42.630;23.382;2022-09-17T05:27:24;93584.69;;;17.52;100.00
12775;BME280;6451;42.630;23.382;2022-09-17T05:29:51;93458.28;;;16.72;100.00
12775;BME280;6451;42.630;23.382;2022-09-17T05:32:18;93560.94;;;17.39;100.00
12775;BME280;6451;42.630;23.382;2022-09-17T05:34:45;93595.66;;;17.52;100.00
12775;BME280;6451;42.630;23.382;2022-09-17T05:37:12;93527.78;;;16.85;100.00
12775;BME280;6451;42.630;23.382;2022-09-17T05:39:40;93596.50;;;17.46;100.00
12775;BME280;6451;42.630;23.382;2022-09-17T05:42:07;93439.69;;;16.49;100.00
12775;BME280;6451;42.630;23.382;2022-09-17T05:44:34;93519.94;;;17.24;100.00
12775;BME280;6451;42.630;23.382;2022-09-17T05:47:07;93595.88;;;17.72;100.00
12775;BME280;6451;42.630;23.382;2022-09-17T05:49:34;93468.25;;;16.89;100.00
12775;BME280;6451;42.630;23.382;2022-09-17T05:52:02;93521.81;;;17.35;100.00
12775;BME280;6451;42.630;23.382;2022-09-17T05:54:32;93590.16;;;17.90;100.00
12775;BME280;6451;42.630;23.382;2022-09-17T05:57:02;93588.81;;;18.05;100.00
12775;BME280;6451;42.630;23.382;2022-09-17T05:59:29;93580.78;;;18.18;100.00
12775;BME280;6451;42.630;23.382;2022-09-17T06:02:00;93551.22;;;17.99;100.00
12775;BME280;6451;42.630;23.382;2022-09-17T06:04:27;93508.84;;;17.73;100.00
12775;BME280;6451;42.630;23.382;2022-09-17T06:06:58;93595.59;;;18.24;100.00
12775;BME280;6451;42.630;23.382;2022-09-17T06:09:28;93594.03;;;18.23;100.00
12775;BME280;6451;42.630;23.382;2022-09-17T06:11:56;93594.53;;;18.18;100.00
12775;BME280;6451;42.630;23.382;2022-09-17T06:14:24;93597.91;;;18.29;100.00
12775;BME280;6451;42.630;23.382;2022-09-17T06:16:51;93607.09;;;18.16;100.00
12775;BME280;6451;42.630;23.382;2022-09-17T06:19:18;93620.13;;;18.08;100.00
12775;BME280;6451;42.630;23.382;2022-09-17T06:21:46;93623.94;;;17.87;100.00
12775;BME280;6451;42.630;23.382;2022-09-17T06:24:14;93615.69;;;17.87;100.00
12775;BME280;6451;42.630;23.382;2022-09-17T06:26:41;93620.50;;;17.76;100.00
12775;BME280;6451;42.630;23.382;2022-09-17T06:29:08;93632.00;;;17.64;100.00
12775;BME280;6451;42.630;23.382;2022-09-17T06:31:36;93661.53;;;17.49;100.00
12775;BME280;6451;42.630;23.382;2022-09-17T06:34:03;93686.09;;;17.18;100.00
12775;BME280;6451;42.630;23.382;2022-09-17T06:36:30;93654.09;;;17.01;100.00
12775;BME280;6451;42.630;23.382;2022-09-17T06:39:00;93654.56;;;16.96;100.00
12775;BME280;6451;42.630;23.382;2022-09-17T06:41:29;93702.09;;;17.23;100.00
12775;BME280;6451;42.630;23.382;2022-09-17T06:43:57;93694.69;;;17.20;100.00
12775;BME280;6451;42.630;23.382;2022-09-17T06:46:24;93682.53;;;17.21;100.00
12775;BME280;6451;42.630;23.382;2022-09-17T06:48:52;93678.06;;;17.42;100.00
12775;BME280;6451;42.630;23.382;2022-09-17T06:51:19;93677.22;;;17.48;100.00
12775;BME280;6451;42.630;23.382;2022-09-17T06:53:47;93652.34;;;17.66;100.00
12775;BME280;6451;42.630;23.382;2022-09-17T06:56:15;93660.47;;;17.81;100.00
12775;BME280;6451;42.630;23.382;2022-09-17T06:58:42;93663.06;;;17.95;100.00
12775;BME280;6451;42.630;23.382;2022-09-17T07:01:09;93656.25;;;18.06;100.00
12775;BME280;6451;42.630;23.382;2022-09-17T07:03:36;93644.34;;;18.17;100.00
12775;BME280;6451;42.630;23.382;2022-09-17T07:06:07;93641.91;;;18.26;100.00
12775;BME280;6451;42.630;23.382;2022-09-17T07:08:35;93619.19;;;18.22;100.00
12775;BME280;6451;42.630;23.382;2022-09-17T07:11:02;93585.88;;;18.47;100.00
12775;BME280;6451;42.630;23.382;2022-09-17T07:13:31;93580.88;;;18.69;100.00
12775;BME280;6451;42.630;23.382;2022-09-17T07:15:59;93580.72;;;18.79;100.00
12775;BME280;6451;42.630;23.382;2022-09-17T07:18:27;93582.44;;;18.93;100.00
12775;BME280;6451;42.630;23.382;2022-09-17T07:20:56;93557.16;;;19.25;100.00
12775;BME280;6451;42.630;23.382;2022-09-17T07:23:26;93541.69;;;19.31;100.00
12775;BME280;6451;42.630;23.382;2022-09-17T07:25:54;93546.91;;;19.49;100.00
12775;BME280;6451;42.630;23.382;2022-09-17T07:28:23;93557.03;;;19.52;100.00
12775;BME280;6451;42.630;23.382;2022-09-17T07:30:51;93546.78;;;19.76;100.00
12775;BME280;6451;42.630;23.382;2022-09-17T07:33:26;93533.94;;;19.89;100.00
12775;BME280;6451;42.630;23.382;2022-09-17T07:35:53;93532.00;;;20.06;100.00
12775;BME280;6451;42.630;23.382;2022-09-17T07:38:21;93548.59;;;20.39;100.00
12775;BME280;6451;42.630;23.382;2022-09-17T07:40:55;93519.28;;;20.12;100.00
12775;BME280;6451;42.630;23.382;2022-09-17T07:43:24;93541.44;;;20.25;100.00
12775;BME280;6451;42.630;23.382;2022-09-17T07:45:53;93531.41;;;20.15;100.00
12775;BME280;6451;42.630;23.382;2022-09-17T07:48:21;93539.34;;;19.93;100.00
12775;BME280;6451;42.630;23.382;2022-09-17T07:50:48;93531.81;;;19.77;100.00
12775;BME280;6451;42.630;23.382;2022-09-17T07:53:16;93543.78;;;20.07;100.00
12775;BME280;6451;42.630;23.382;2022-09-17T07:55:50;93539.06;;;20.07;100.00
12775;BME280;6451;42.630;23.382;2022-09-17T07:58:19;93519.84;;;20.04;100.00
12775;BME280;6451;42.630;23.382;2022-09-17T08:00:48;93509.47;;;20.11;100.00
12775;BME280;6451;42.630;23.382;2022-09-17T08:03:15;93535.19;;;20.05;100.00
12775;BME280;6451;42.630;23.382;2022-09-17T08:05:42;93530.91;;;20.20;100.00
12775;BME280;6451;42.630;23.382;2022-09-17T08:08:10;93523.44;;;20.20;100.00
12775;BME280;6451;42.630;23.382;2022-09-17T08:10:37;93494.78;;;20.34;100.00
12775;BME280;6451;42.630;23.382;2022-09-17T08:13:04;93489.31;;;20.50;100.00
12775;BME280;6451;42.630;23.382;2022-09-17T08:15:35;93519.28;;;20.65;100.00
12775;BME280;6451;42.630;23.382;2022-09-17T08:18:03;93518.75;;;20.70;100.00
12775;BME280;6451;42.630;23.382;2022-09-17T08:20:30;93495.75;;;20.93;100.00
12775;BME280;6451;42.630;23.382;2022-09-17T08:22:58;93493.84;;;20.90;100.00
12775;BME280;6451;42.630;23.382;2022-09-17T08:25:27;93495.94;;;21.31;100.00
12775;BME280;6451;42.630;23.382;2022-09-17T08:27:54;93486.78;;;21.05;100.00
12775;BME280;6451;42.630;23.382;2022-09-17T08:30:22;93495.31;;;20.94;100.00
12775;BME280;6451;42.630;23.382;2022-09-17T08:32:54;93325.19;;;20.17;100.00
12775;BME280;6451;42.630;23.382;2022-09-17T08:35:24;93482.47;;;21.49;100.00
12775;BME280;6451;42.630;23.382;2022-09-17T08:37:56;93484.47;;;21.61;100.00
12775;BME280;6451;42.630;23.382;2022-09-17T08:40:23;93480.91;;;21.90;100.00
12775;BME280;6451;42.630;23.382;2022-09-17T08:42:54;93487.09;;;22.07;100.00
12775;BME280;6451;42.630;23.382;2022-09-17T08:45:26;93479.03;;;22.00;100.00
12775;BME280;6451;42.630;23.382;2022-09-17T08:48:01;93475.97;;;22.23;100.00
12775;BME280;6451;42.630;23.382;2022-09-17T08:50:31;93449.09;;;21.85;100.00
12775;BME280;6451;42.630;23.382;2022-09-17T08:53:12;93486.13;;;22.01;100.00
12775;BME280;6451;42.630;23.382;2022-09-17T08:55:50;93482.84;;;21.64;100.00
12775;BME280;6451;42.630;23.382;2022-09-17T08:58:43;93484.81;;;21.63;100.00
12775;BME280;6451;42.630;23.382;2022-09-17T09:01:22;93472.88;;;21.08;100.00
12775;BME280;6451;42.630;23.382;2022-09-17T09:04:03;93460.72;;;21.06;100.00
12775;BME280;6451;42.630;23.382;2022-09-17T09:06:35;93484.84;;;21.34;100.00
12775;BME280;6451;42.630;23.382;2022-09-17T09:09:12;93478.72;;;21.27;100.00
12775;BME280;6451;42.630;23.382;2022-09-17T09:11:41;93506.28;;;21.43;100.00
12775;BME280;6451;42.630;23.382;2022-09-17T09:14:14;93496.31;;;21.17;100.00
12775;BME280;6451;42.630;23.382;2022-09-17T09:16:44;93508.75;;;20.92;100.00
12775;BME280;6451;42.630;23.382;2022-09-17T09:19:19;93505.16;;;20.79;100.00
12775;BME280;6451;42.630;23.382;2022-09-17T09:22:01;93500.34;;;20.50;100.00
12775;BME280;6451;42.630;23.382;2022-09-17T09:24:38;93523.00;;;20.38;100.00
12775;BME280;6451;42.630;23.382;2022-09-17T09:27:15;93537.31;;;20.33;100.00
12775;BME280;6451;42.630;23.382;2022-09-17T09:29:52;93548.06;;;20.47;100.00
12775;BME280;6451;42.630;23.382;2022-09-17T09:32:32;93527.44;;;20.16;100.00
12775;BME280;6451;42.630;23.382;2022-09-17T09:35:14;93550.38;;;20.29;100.00
12775;BME280;6451;42.630;23.382;2022-09-17T09:37:43;93568.31;;;20.37;100.00
12775;BME280;6451;42.630;23.382;2022-09-17T09:40:22;93572.53;;;20.06;100.00
12775;BME280;6451;42.630;23.382;2022-09-17T09:42:52;93573.66;;;20.08;100.00
12775;BME280;6451;42.630;23.382;2022-09-17T09:45:26;93574.38;;;20.12;100.00
12775;BME280;6451;42.630;23.382;2022-09-17T09:48:03;93552.91;;;19.84;100.00
12775;BME280;6451;42.630;23.382;2022-09-17T09:50:40;93592.28;;;20.00;100.00
12775;BME280;6451;42.630;23.382;2022-09-17T09:53:18;93518.88;;;19.34;100.00
12775;BME280;6451;42.630;23.382;2022-09-17T09:56:00;93597.88;;;19.77;100.00
12775;BME280;6451;42.630;23.382;2022-09-17T09:58:33;93612.84;;;19.76;100.00
12775;BME280;6451;42.630;23.382;2022-09-17T10:01:00;93612.34;;;19.61;100.00
12775;BME280;6451;42.630;23.382;2022-09-17T10:03:29;93637.28;;;19.51;100.00
12775;BME280;6451;42.630;23.382;2022-09-17T10:06:00;93610.22;;;19.45;100.00
12775;BME280;6451;42.630;23.382;2022-09-17T10:08:30;93581.38;;;19.34;100.00
12775;BME280;6451;42.630;23.382;2022-09-17T10:10:59;93567.63;;;19.34;100.00
12775;BME280;6451;42.630;23.382;2022-09-17T10:13:28;93533.66;;;19.21;100.00
12775;BME280;6451;42.630;23.382;2022-09-17T10:15:55;93555.00;;;19.13;100.00
12775;BME280;6451;42.630;23.382;2022-09-17T10:18:24;93531.81;;;19.14;100.00
12775;BME280;6451;42.630;23.382;2022-09-17T10:20:56;93544.44;;;19.11;100.00
12775;BME280;6451;42.630;23.382;2022-09-17T10:23:27;93478.25;;;18.79;100.00
12775;BME280;6451;42.630;23.382;2022-09-17T10:25:56;93527.94;;;19.11;100.00
12775;BME280;6451;42.630;23.382;2022-09-17T10:28:29;93473.22;;;18.74;100.00
12775;BME280;6451;42.630;23.382;2022-09-17T10:30:59;93470.94;;;18.69;100.00
12775;BME280;6451;42.630;23.382;2022-09-17T10:33:29;93487.75;;;18.74;100.00
12775;BME280;6451;42.630;23.382;2022-09-17T10:36:01;93507.31;;;18.76;100.00
12775;BME280;6451;42.630;23.382;2022-09-17T10:38:35;93517.63;;;18.72;100.00
12775;BME280;6451;42.630;23.382;2022-09-17T10:41:13;93504.81;;;18.85;100.00
12775;BME280;6451;42.630;23.382;2022-09-17T10:43:41;93492.16;;;18.92;100.00
12775;BME280;6451;42.630;23.382;2022-09-17T10:46:11;93469.84;;;19.09;100.00
12775;BME280;6451;42.630;23.382;2022-09-17T10:48:43;93434.00;;;19.13;100.00
12775;BME280;6451;42.630;23.382;2022-09-17T10:51:20;93337.31;;;18.55;100.00
12775;BME280;6451;42.630;23.382;2022-09-17T10:54:13;93434.09;;;19.29;100.00
12775;BME280;6451;42.630;23.382;2022-09-17T10:56:44;93410.25;;;19.23;100.00
12775;BME280;6451;42.630;23.382;2022-09-17T10:59:34;93430.31;;;19.00;100.00
12775;BME280;6451;42.630;23.382;2022-09-17T11:02:11;93409.41;;;19.06;100.00
12775;BME280;6451;42.630;23.382;2022-09-17T11:04:53;93397.69;;;19.22;100.00
12775;BME280;6451;42.630;23.382;2022-09-17T11:07:32;93407.69;;;19.52;100.00
12775;BME280;6451;42.630;23.382;2022-09-17T11:10:12;93392.81;;;19.49;100.00
12775;BME280;6451;42.630;23.382;2022-09-17T11:12:53;93428.25;;;19.83;100.00
12775;BME280;6451;42.630;23.382;2022-09-17T11:15:30;93410.47;;;20.20;100.00
12775;BME280;6451;42.630;23.382;2022-09-17T11:21:15;93411.25;;;20.53;100.00
12775;BME280;6451;42.630;23.382;2022-09-17T11:26:55;93413.47;;;20.75;100.00
12775;BME280;6451;42.630;23.382;2022-09-17T11:29:51;93407.66;;;21.31;100.00
12775;BME280;6451;42.630;23.382;2022-09-17T11:32:44;93388.53;;;20.49;100.00
12775;BME280;6451;42.630;23.382;2022-09-17T11:35:16;93412.28;;;20.76;100.00
12775;BME280;6451;42.630;23.382;2022-09-17T11:37:50;93425.19;;;20.79;100.00
12775;BME280;6451;42.630;23.382;2022-09-17T11:40:22;93478.75;;;20.29;100.00
12775;BME280;6451;42.630;23.382;2022-09-17T11:42:55;93473.50;;;20.35;100.00
12775;BME280;6451;42.630;23.382;2022-09-17T11:45:26;93479.63;;;19.90;100.00
12775;BME280;6451;42.630;23.382;2022-09-17T11:47:59;93327.09;;;18.79;100.00
12775;BME280;6451;42.630;23.382;2022-09-17T11:50:32;93487.56;;;19.48;100.00
12775;BME280;6451;42.630;23.382;2022-09-17T11:53:05;93464.53;;;19.38;100.00
12775;BME280;6451;42.630;23.382;2022-09-17T11:55:40;93459.31;;;19.44;100.00
12775;BME280;6451;42.630;23.382;2022-09-17T11:58:13;93446.84;;;19.39;100.00
12775;BME280;6451;42.630;23.382;2022-09-17T12:00:47;93456.53;;;19.48;100.00
12775;BME280;6451;42.630;23.382;2022-09-17T12:03:22;93451.59;;;19.59;100.00
12775;BME280;6451;42.630;23.382;2022-09-17T12:05:54;93466.06;;;19.99;100.00
12775;BME280;6451;42.630;23.382;2022-09-17T12:08:25;93421.66;;;19.97;100.00
12775;BME280;6451;42.630;23.382;2022-09-17T12:11:01;93448.88;;;20.11;100.00
12775;BME280;6451;42.630;23.382;2022-09-17T12:13:35;93416.75;;;20.05;100.00
12775;BME280;6451;42.630;23.382;2022-09-17T12:16:10;93405.25;;;20.10;100.00
12775;BME280;6451;42.630;23.382;2022-09-17T12:18:54;93429.97;;;20.46;100.00
12775;BME280;6451;42.630;23.382;2022-09-17T12:21:28;93419.44;;;20.41;100.00
12775;BME280;6451;42.630;23.382;2022-09-17T12:23:58;93440.56;;;20.64;100.00
12775;BME280;6451;42.630;23.382;2022-09-17T12:26:37;93420.22;;;20.41;100.00
12775;BME280;6451;42.630;23.382;2022-09-17T12:29:26;93432.47;;;20.57;100.00
12775;BME280;6451;42.630;23.382;2022-09-17T12:31:58;93430.88;;;20.39;100.00
12775;BME280;6451;42.630;23.382;2022-09-17T12:34:36;93450.09;;;20.10;100.00
12775;BME280;6451;42.630;23.382;2022-09-17T12:37:17;93367.94;;;19.53;100.00
12775;BME280;6451;42.630;23.382;2022-09-17T12:40:02;93435.94;;;20.08;100.00
12775;BME280;6451;42.630;23.382;2022-09-17T12:42:41;93432.69;;;20.13;100.00
12775;BME280;6451;42.630;23.382;2022-09-17T12:45:33;93429.94;;;20.13;100.00
12775;BME280;6451;42.630;23.382;2022-09-17T12:51:34;93423.56;;;20.16;100.00
12775;BME280;6451;42.630;23.382;2022-09-17T12:54:12;93410.97;;;20.32;100.00
12775;BME280;6451;42.630;23.382;2022-09-17T12:56:54;93409.44;;;20.14;100.00
12775;BME280;6451;42.630;23.382;2022-09-17T12:59:28;93405.03;;;20.00;100.00
12775;BME280;6451;42.630;23.382;2022-09-17T13:02:00;93401.84;;;19.86;100.00
12775;BME280;6451;42.630;23.382;2022-09-17T13:04:45;93391.09;;;19.91;100.00
12775;BME280;6451;42.630;23.382;2022-09-17T13:13:27;93398.44;;;20.14;100.00
12775;BME280;6451;42.630;23.382;2022-09-17T13:16:03;93396.94;;;19.93;100.00
12775;BME280;6451;42.630;23.382;2022-09-17T13:18:40;93386.28;;;19.79;100.00
12775;BME280;6451;42.630;23.382;2022-09-17T13:21:10;93414.50;;;19.99;100.00
12775;BME280;6451;42.630;23.382;2022-09-17T13:23:41;93393.53;;;20.06;100.00
12775;BME280;6451;42.630;23.382;2022-09-17T13:26:10;93379.75;;;20.06;100.00
12775;BME280;6451;42.630;23.382;2022-09-17T13:28:41;93370.69;;;19.73;100.00
12775;BME280;6451;42.630;23.382;2022-09-17T13:31:09;93348.25;;;19.90;100.00
12775;BME280;6451;42.630;23.382;2022-09-17T13:33:53;93347.13;;;19.88;100.00